Sunday, October 21, 2018, 10:27 PM CDT
Back to Local

KDKB, De Kalb, De Kalb Taylor Municipal Airport

Location: Dekalb, IL, United States Lat: 41.932
Local Time: 10:27 PM CDT ( 3:27 GMT) Lon: -88.708
Time Zone: US/Central Elev: 915 ft

Show me the last for .
Show Decoded

2018-10-21 22:15 METAR KDKB 220315Z AUTO 20005KT 10SM CLR 01/M03 A3011 RMK AO2 T00121028 =
2018-10-21 21:55 METAR KDKB 220255Z AUTO 20006KT 10SM CLR 01/M03 A3011 RMK AO2 T00061030 =
2018-10-21 21:35 METAR KDKB 220235Z AUTO 20005KT 10SM CLR 01/M03 A3011 RMK AO2 T00141030 =
2018-10-21 21:15 METAR KDKB 220215Z AUTO 21005KT 10SM CLR 03/M03 A3011 RMK AO2 T00261030 =
2018-10-21 20:55 METAR KDKB 220155Z AUTO 21004KT 10SM CLR 03/M03 A3011 RMK AO2 T00311030 =
2018-10-21 20:35 METAR KDKB 220135Z AUTO 23004KT 10SM CLR 05/M03 A3011 RMK AO2 T00481032 =
2018-10-21 20:15 METAR KDKB 220115Z AUTO 23004KT 10SM CLR 04/M03 A3011 RMK AO2 T00431030 =
2018-10-21 19:55 METAR KDKB 220055Z AUTO 23004KT 10SM CLR 04/M03 A3011 RMK AO2 T00391030 =
2018-10-21 19:35 METAR KDKB 220035Z AUTO 20006KT 10SM CLR 04/M03 A3010 RMK AO2 T00371027 =
2018-10-21 19:15 METAR KDKB 220015Z AUTO 20008KT 10SM CLR 05/M03 A3009 RMK AO2 T00451030 =
2018-10-21 18:55 METAR KDKB 212355Z AUTO 19008KT 10SM CLR 05/M03 A3009 RMK AO2 T00511032 10101
                 20051 =
2018-10-21 18:35 METAR KDKB 212335Z AUTO 19008KT 10SM CLR 05/M03 A3011 RMK AO2 T00531033 =
2018-10-21 18:15 METAR KDKB 212315Z AUTO 20009KT 10SM CLR 06/M03 A3011 RMK AO2 T00641034 =
2018-10-21 17:55 METAR KDKB 212255Z AUTO 20012KT 10SM CLR 07/M04 A3011 RMK AO2 T00741037 =
2018-10-21 17:35 METAR KDKB 212235Z AUTO 20013KT 10SM CLR 08/M03 A3012 RMK AO2 T00811033 =
2018-10-21 17:10 METAR KDKB 212210Z AUTO 21013KT 10SM CLR 09/M04 A3013 RMK AO2 T00891036 =
2018-10-21 16:55 METAR KDKB 212155Z AUTO 21013G20KT 10SM CLR 09/M04 A3013 RMK AO2 T00931039 =
2018-10-21 16:35 METAR KDKB 212135Z AUTO 21013G19KT 10SM CLR 10/M04 A3013 RMK AO2 T00951040 =
2018-10-21 16:10 METAR KDKB 212110Z AUTO 21013G19KT 10SM CLR 10/M04 A3014 RMK AO2 T00991039 =
2018-10-21 15:55 METAR KDKB 212055Z AUTO 21016KT 10SM CLR 10/M04 A3015 RMK AO2 T01001042 =
2018-10-21 15:40 METAR KDKB 212040Z AUTO 22014KT 10SM CLR 10/M04 A3015 RMK AO2 T00991045 =
2018-10-21 15:15 METAR KDKB 212015Z AUTO 22012G17KT 10SM CLR 10/M04 A3018 RMK AO2 T01011042 =
2018-10-21 14:55 METAR KDKB 211955Z AUTO 23012KT 10SM CLR 10/M05 A3019 RMK AO2 T00971051 =
2018-10-21 14:35 METAR KDKB 211935Z AUTO 21011G20KT 10SM CLR 10/M04 A3020 RMK AO2 T00981036 =
2018-10-21 14:15 METAR KDKB 211915Z AUTO 24012G18KT 10SM CLR 09/M04 A3022 RMK AO2 T00931043 =
2018-10-21 13:50 METAR KDKB 211850Z AUTO 23012G16KT 10SM CLR 08/M05 A3024 RMK AO2 T00841049 =
2018-10-21 13:35 METAR KDKB 211835Z AUTO 22010KT 10SM CLR 08/M04 A3024 RMK AO2 T00841045 =
2018-10-21 13:15 METAR KDKB 211815Z AUTO 23010G16KT 10SM CLR 08/M05 A3026 RMK AO2 T00811046 =
2018-10-21 12:55 METAR KDKB 211755Z AUTO 24012G17KT 10SM CLR 08/M05 A3027 RMK AO2 T00771051 10077
                 21057 =
2018-10-21 12:35 METAR KDKB 211735Z AUTO 24010G17KT 10SM CLR 07/M05 A3029 RMK AO2 T00721050 =
2018-10-21 12:15 METAR KDKB 211715Z AUTO 24012G15KT 10SM CLR 07/M05 A3031 RMK AO2 T00661052 =
2018-10-21 11:55 METAR KDKB 211655Z AUTO 22011G15KT 10SM CLR 06/M05 A3032 RMK AO2 T00631052 =
2018-10-21 11:35 METAR KDKB 211635Z AUTO 22008G14KT 10SM CLR 06/M04 A3033 RMK AO2 T00621043 =
2018-10-21 11:15 METAR KDKB 211615Z AUTO 23009KT 10SM CLR 05/M05 A3034 RMK AO2 T00531047 =
2018-10-21 10:55 METAR KDKB 211555Z AUTO 22009G15KT 10SM CLR 05/M05 A3035 RMK AO2 T00481046 =
2018-10-21 10:35 METAR KDKB 211535Z AUTO 21009KT 10SM CLR 05/M04 A3035 RMK AO2 T00461042 =
2018-10-21 10:15 METAR KDKB 211515Z AUTO 21009KT 10SM CLR 04/M04 A3036 RMK AO2 T00381045 =
2018-10-21 09:55 METAR KDKB 211455Z AUTO 22007KT 10SM CLR 03/M04 A3036 RMK AO2 T00321041 =
2018-10-21 09:35 METAR KDKB 211435Z AUTO 21005KT 10SM CLR 03/M04 A3036 RMK AO2 T00251040 =
2018-10-21 09:15 METAR KDKB 211415Z AUTO 21005KT 10SM CLR 02/M04 A3037 RMK AO2 T00151040 =
2018-10-21 08:55 METAR KDKB 211355Z AUTO 21005KT 10SM CLR 01/M04 A3037 RMK AO2 T00051044 =
2018-10-21 08:35 METAR KDKB 211335Z AUTO 23004KT 10SM CLR M01/M04 A3037 RMK AO2 T10061043 =
2018-10-21 08:15 METAR KDKB 211315Z AUTO 20003KT 10SM CLR M03/M05 A3036 RMK AO2 T10311050 =
2018-10-21 07:55 METAR KDKB 211255Z AUTO 20003KT 10SM CLR M04/M06 A3035 RMK AO2 T10431061 =
2018-10-21 07:35 METAR KDKB 211235Z AUTO 23003KT 10SM CLR M04/M07 A3036 RMK AO2 T10431069 =
2018-10-21 07:15 METAR KDKB 211215Z AUTO 23003KT 10SM CLR M06/M07 A3036 RMK AO2 T10571073 =
2018-10-21 06:55 METAR KDKB 211155Z AUTO 21003KT 10SM CLR M06/M07 A3036 RMK AO2 7//// T10561074
                 11015 21056 =
2018-10-21 06:35 METAR KDKB 211135Z AUTO 00000KT 10SM CLR M04/M07 A3036 RMK AO2 T10451068 =
2018-10-21 06:15 METAR KDKB 211115Z AUTO 00000KT 10SM CLR M05/M07 A3036 RMK AO2 T10471070 =
2018-10-21 05:55 METAR KDKB 211055Z AUTO 00000KT 10SM CLR M04/M07 A3036 RMK AO2 T10411068 =
2018-10-21 05:35 METAR KDKB 211035Z AUTO 27003KT 10SM CLR M04/M06 A3036 RMK AO2 T10381065 =
2018-10-21 05:15 METAR KDKB 211015Z AUTO 27004KT 10SM CLR M04/M06 A3037 RMK AO2 T10361065 =
2018-10-21 04:55 METAR KDKB 210955Z AUTO 27005KT 10SM CLR M04/M07 A3037 RMK AO2 T10401066 =
2018-10-21 04:35 METAR KDKB 210935Z AUTO 27004KT 10SM CLR M03/M07 A3036 RMK AO2 T10351066 =
2018-10-21 04:15 METAR KDKB 210915Z AUTO 30004KT 10SM CLR M03/M06 A3037 RMK AO2 T10351064 =
2018-10-21 03:55 METAR KDKB 210855Z AUTO 30004KT 10SM CLR M03/M06 A3037 RMK AO2 T10351062 =
2018-10-21 03:35 METAR KDKB 210835Z AUTO 28006KT 10SM CLR M04/M06 A3037 RMK AO2 T10371065 =
2018-10-21 03:15 METAR KDKB 210815Z AUTO 28006KT 10SM CLR M03/M06 A3037 RMK AO2 T10351065 =
2018-10-21 02:55 METAR KDKB 210755Z AUTO 30004KT 10SM CLR M03/M06 A3036 RMK AO2 T10311065 =
2018-10-21 02:35 METAR KDKB 210735Z AUTO 31004KT 10SM CLR M02/M06 A3036 RMK AO2 T10241063 =
2018-10-21 02:15 METAR KDKB 210715Z AUTO 29004KT 10SM CLR M03/M06 A3036 RMK AO2 T10301065 =
2018-10-21 01:55 METAR KDKB 210655Z AUTO 30005KT 10SM CLR M02/M07 A3036 RMK AO2 T10231067 =
2018-10-21 01:35 METAR KDKB 210635Z AUTO 31004KT 10SM CLR M02/M06 A3035 RMK AO2 T10211065 =
2018-10-21 01:15 METAR KDKB 210615Z AUTO 30005KT 10SM CLR M01/M07 A3034 RMK AO2 T10151066 =
2018-10-21 00:55 METAR KDKB 210555Z AUTO 30004KT 10SM CLR M02/M06 A3034 RMK AO2 T10221064 10023
                 21025 =
2018-10-21 00:35 METAR KDKB 210535Z AUTO 30005KT 10SM CLR M02/M06 A3035 RMK AO2 T10231065 =
2018-10-21 00:15 METAR KDKB 210515Z AUTO 30005KT 10SM CLR M02/M06 A3034 RMK AO2 T10221064 =
2018-10-20 23:55 METAR KDKB 210455Z AUTO 30003KT 10SM CLR M02/M06 A3034 RMK AO2 T10181065 =
2018-10-20 23:35 METAR KDKB 210435Z AUTO 32004KT 10SM CLR M02/M06 A3034 RMK AO2 T10181065 =
2018-10-20 23:15 METAR KDKB 210415Z AUTO 31004KT 10SM CLR M02/M06 A3034 RMK AO2 T10231064 =
2018-10-20 22:55 METAR KDKB 210355Z AUTO 32003KT 10SM CLR M02/M06 A3034 RMK AO2 T10171064 =
2018-10-20 22:35 METAR KDKB 210335Z AUTO 32004KT 10SM CLR M01/M07 A3033 RMK AO2 T10101066 =

Support USWX by starting your Amazon purchase here.